sensor_id;sensor_type;location;lat;lon;timestamp;pressure;altitude;pressure_sealevel;temperature;humidity
20027;BME280;10174;42.688;23.344;2023-04-24T00:02:13;95063.03;;;11.11;69.13
20027;BME280;10174;42.688;23.344;2023-04-24T00:04:39;95049.84;;;11.20;68.58
20027;BME280;10174;42.688;23.344;2023-04-24T00:07:06;95062.22;;;11.21;68.91
20027;BME280;10174;42.688;23.344;2023-04-24T00:09:32;95036.19;;;10.96;69.87
20027;BME280;10174;42.688;23.344;2023-04-24T00:11:57;95019.22;;;11.00;65.86
20027;BME280;10174;42.688;23.344;2023-04-24T00:14:23;95025.97;;;10.93;67.51
20027;BME280;10174;42.688;23.344;2023-04-24T00:16:48;95009.34;;;10.70;68.06
20027;BME280;10174;42.688;23.344;2023-04-24T00:19:14;95022.25;;;10.78;66.59
20027;BME280;10174;42.688;23.344;2023-04-24T00:21:40;95020.09;;;10.70;65.93
20027;BME280;10174;42.688;23.344;2023-04-24T00:24:06;95002.38;;;10.59;66.07
20027;BME280;10174;42.688;23.344;2023-04-24T00:26:31;95006.13;;;10.58;66.12
20027;BME280;10174;42.688;23.344;2023-04-24T00:28:57;94956.19;;;10.15;66.44
20027;BME280;10174;42.688;23.344;2023-04-24T00:31:22;95027.63;;;10.63;66.70
20027;BME280;10174;42.688;23.344;2023-04-24T00:33:47;94997.56;;;10.45;67.68
20027;BME280;10174;42.688;23.344;2023-04-24T00:36:13;95046.44;;;10.52;67.75
20027;BME280;10174;42.688;23.344;2023-04-24T00:38:38;95026.78;;;10.31;68.25
20027;BME280;10174;42.688;23.344;2023-04-24T00:41:04;95025.72;;;10.27;66.57
20027;BME280;10174;42.688;23.344;2023-04-24T00:43:29;95014.72;;;10.19;66.22
20027;BME280;10174;42.688;23.344;2023-04-24T00:45:55;94978.72;;;9.99;68.14
20027;BME280;10174;42.688;23.344;2023-04-24T00:48:21;95053.97;;;10.40;68.16
20027;BME280;10174;42.688;23.344;2023-04-24T00:50:46;95046.69;;;10.41;69.41
20027;BME280;10174;42.688;23.344;2023-04-24T00:53:12;95002.63;;;10.11;69.27
20027;BME280;10174;42.688;23.344;2023-04-24T00:55:37;95038.63;;;10.46;68.07
20027;BME280;10174;42.688;23.344;2023-04-24T00:58:02;94998.06;;;10.32;64.58
20027;BME280;10174;42.688;23.344;2023-04-24T01:00:28;95034.63;;;10.69;67.67
20027;BME280;10174;42.688;23.344;2023-04-24T01:02:54;94980.91;;;10.43;67.32
20027;BME280;10174;42.688;23.344;2023-04-24T01:05:20;94897.66;;;9.81;68.82
20027;BME280;10174;42.688;23.344;2023-04-24T01:07:46;94968.53;;;10.32;67.84
20027;BME280;10174;42.688;23.344;2023-04-24T01:10:14;95021.19;;;10.59;67.50
20027;BME280;10174;42.688;23.344;2023-04-24T01:12:39;94973.91;;;10.16;67.33
20027;BME280;10174;42.688;23.344;2023-04-24T01:15:05;95031.38;;;10.67;68.26
20027;BME280;10174;42.688;23.344;2023-04-24T01:17:32;95011.22;;;10.59;68.86
20027;BME280;10174;42.688;23.344;2023-04-24T01:19:58;94919.69;;;9.89;69.68
20027;BME280;10174;42.688;23.344;2023-04-24T01:22:25;95006.13;;;10.47;71.43
20027;BME280;10174;42.688;23.344;2023-04-24T01:24:51;95006.69;;;10.49;70.70
20027;BME280;10174;42.688;23.344;2023-04-24T01:27:17;94952.16;;;10.23;68.10
20027;BME280;10174;42.688;23.344;2023-04-24T01:29:42;94970.69;;;10.45;68.52
20027;BME280;10174;42.688;23.344;2023-04-24T01:32:07;95013.66;;;10.66;67.55
20027;BME280;10174;42.688;23.344;2023-04-24T01:34:34;95006.41;;;10.61;65.81
20027;BME280;10174;42.688;23.344;2023-04-24T01:36:59;94981.72;;;10.33;66.44
20027;BME280;10174;42.688;23.344;2023-04-24T01:39:25;94999.72;;;10.43;65.20
20027;BME280;10174;42.688;23.344;2023-04-24T01:41:54;94971.78;;;10.19;65.26
20027;BME280;10174;42.688;23.344;2023-04-24T01:44:20;94980.88;;;10.07;66.01
20027;BME280;10174;42.688;23.344;2023-04-24T01:46:45;94997.78;;;10.18;66.09
20027;BME280;10174;42.688;23.344;2023-04-24T01:49:11;95012.56;;;10.21;65.79
20027;BME280;10174;42.688;23.344;2023-04-24T01:51:36;94891.72;;;9.43;65.83
20027;BME280;10174;42.688;23.344;2023-04-24T01:54:02;94935.25;;;9.71;65.72
20027;BME280;10174;42.688;23.344;2023-04-24T01:56:29;94983.00;;;9.95;66.21
20027;BME280;10174;42.688;23.344;2023-04-24T01:58:55;94975.22;;;9.88;66.34
20027;BME280;10174;42.688;23.344;2023-04-24T02:01:21;94972.25;;;9.74;67.30
20027;BME280;10174;42.688;23.344;2023-04-24T02:03:48;94930.88;;;9.39;68.32
20027;BME280;10174;42.688;23.344;2023-04-24T02:06:13;94959.31;;;9.56;68.68
20027;BME280;10174;42.688;23.344;2023-04-24T02:08:39;94957.16;;;9.42;69.49
20027;BME280;10174;42.688;23.344;2023-04-24T02:11:04;94875.75;;;8.75;70.10
20027;BME280;10174;42.688;23.344;2023-04-24T02:13:31;94982.34;;;9.36;70.65
20027;BME280;10174;42.688;23.344;2023-04-24T02:15:58;94914.63;;;8.93;70.76
20027;BME280;10174;42.688;23.344;2023-04-24T02:18:23;94906.31;;;8.84;70.75
20027;BME280;10174;42.688;23.344;2023-04-24T02:20:49;95009.38;;;9.19;72.34
20027;BME280;10174;42.688;23.344;2023-04-24T02:23:15;94966.63;;;8.97;72.79
20027;BME280;10174;42.688;23.344;2023-04-24T02:25:40;94840.34;;;8.15;72.68
20027;BME280;10174;42.688;23.344;2023-04-24T02:28:06;94888.91;;;8.39;72.78
20027;BME280;10174;42.688;23.344;2023-04-24T02:30:31;94894.44;;;8.22;73.73
20027;BME280;10174;42.688;23.344;2023-04-24T02:32:57;94942.47;;;8.39;74.36
20027;BME280;10174;42.688;23.344;2023-04-24T02:35:22;94903.25;;;8.17;74.13
20027;BME280;10174;42.688;23.344;2023-04-24T02:37:48;94903.06;;;8.29;74.42
20027;BME280;10174;42.688;23.344;2023-04-24T02:40:13;94963.81;;;8.66;74.56
20027;BME280;10174;42.688;23.344;2023-04-24T02:42:38;94980.75;;;8.77;75.22
20027;BME280;10174;42.688;23.344;2023-04-24T02:45:04;94846.63;;;7.93;74.94
20027;BME280;10174;42.688;23.344;2023-04-24T02:47:30;94948.78;;;8.60;74.52
20027;BME280;10174;42.688;23.344;2023-04-24T02:49:55;94938.78;;;8.50;74.35
20027;BME280;10174;42.688;23.344;2023-04-24T02:52:21;94963.75;;;8.56;74.59
20027;BME280;10174;42.688;23.344;2023-04-24T02:54:46;94942.69;;;8.32;74.57
20027;BME280;10174;42.688;23.344;2023-04-24T02:57:11;94964.94;;;8.38;74.98
20027;BME280;10174;42.688;23.344;2023-04-24T02:59:37;94942.69;;;8.32;74.89
20027;BME280;10174;42.688;23.344;2023-04-24T03:02:02;94944.53;;;8.27;75.39
20027;BME280;10174;42.688;23.344;2023-04-24T03:04:28;94930.78;;;8.13;76.04
20027;BME280;10174;42.688;23.344;2023-04-24T03:06:53;94955.19;;;8.22;76.28
20027;BME280;10174;42.688;23.344;2023-04-24T03:09:20;94974.22;;;8.25;76.71
20027;BME280;10174;42.688;23.344;2023-04-24T03:11:46;94927.38;;;7.90;77.87
20027;BME280;10174;42.688;23.344;2023-04-24T03:14:11;94942.56;;;7.84;77.40
20027;BME280;10174;42.688;23.344;2023-04-24T03:16:37;94947.75;;;7.91;77.16
20027;BME280;10174;42.688;23.344;2023-04-24T03:19:02;94905.59;;;7.71;77.48
20027;BME280;10174;42.688;23.344;2023-04-24T03:21:28;94985.19;;;8.24;77.31
20027;BME280;10174;42.688;23.344;2023-04-24T03:23:53;94959.38;;;8.12;76.76
20027;BME280;10174;42.688;23.344;2023-04-24T03:26:18;94970.41;;;8.16;76.96
20027;BME280;10174;42.688;23.344;2023-04-24T03:28:44;94930.03;;;7.85;76.94
20027;BME280;10174;42.688;23.344;2023-04-24T03:31:10;94954.75;;;7.97;76.96
20027;BME280;10174;42.688;23.344;2023-04-24T03:33:35;94953.41;;;8.00;77.16
20027;BME280;10174;42.688;23.344;2023-04-24T03:36:01;94987.56;;;8.20;77.41
20027;BME280;10174;42.688;23.344;2023-04-24T03:38:26;94955.88;;;8.07;77.17
20027;BME280;10174;42.688;23.344;2023-04-24T03:40:52;94911.72;;;7.72;76.87
20027;BME280;10174;42.688;23.344;2023-04-24T03:43:17;94968.56;;;8.22;76.46
20027;BME280;10174;42.688;23.344;2023-04-24T03:45:42;94954.63;;;8.19;76.63
20027;BME280;10174;42.688;23.344;2023-04-24T03:48:08;94988.03;;;8.44;76.77
20027;BME280;10174;42.688;23.344;2023-04-24T03:50:33;94985.94;;;8.51;76.53
20027;BME280;10174;42.688;23.344;2023-04-24T03:52:59;94930.84;;;8.23;76.40
20027;BME280;10174;42.688;23.344;2023-04-24T03:55:24;94951.59;;;8.43;76.15
20027;BME280;10174;42.688;23.344;2023-04-24T03:57:49;94918.88;;;8.31;75.20
20027;BME280;10174;42.688;23.344;2023-04-24T04:00:15;94754.75;;;7.29;74.99
20027;BME280;10174;42.688;23.344;2023-04-24T04:02:41;94973.50;;;8.72;75.45
20027;BME280;10174;42.688;23.344;2023-04-24T04:05:06;94986.44;;;8.91;74.95
20027;BME280;10174;42.688;23.344;2023-04-24T04:07:33;94932.47;;;8.62;74.67
20027;BME280;10174;42.688;23.344;2023-04-24T04:09:58;94969.06;;;8.99;73.92
20027;BME280;10174;42.688;23.344;2023-04-24T04:12:24;94984.16;;;9.20;73.31
20027;BME280;10174;42.688;23.344;2023-04-24T04:14:49;94936.69;;;9.11;73.12
20027;BME280;10174;42.688;23.344;2023-04-24T04:17:15;94951.25;;;9.30;73.12
20027;BME280;10174;42.688;23.344;2023-04-24T04:19:40;94953.97;;;9.45;73.06
20027;BME280;10174;42.688;23.344;2023-04-24T04:22:06;94963.91;;;9.66;69.88
20027;BME280;10174;42.688;23.344;2023-04-24T04:24:33;94963.13;;;9.65;70.48
20027;BME280;10174;42.688;23.344;2023-04-24T04:26:59;94990.00;;;9.96;67.50
20027;BME280;10174;42.688;23.344;2023-04-24T04:29:25;94882.38;;;9.41;66.79
20027;BME280;10174;42.688;23.344;2023-04-24T04:31:51;94970.41;;;10.01;65.15
20027;BME280;10174;42.688;23.344;2023-04-24T04:34:16;94973.66;;;10.08;64.93
20027;BME280;10174;42.688;23.344;2023-04-24T04:36:42;95007.75;;;10.28;63.88
20027;BME280;10174;42.688;23.344;2023-04-24T04:39:08;94938.47;;;9.94;63.14
20027;BME280;10174;42.688;23.344;2023-04-24T04:41:34;94984.63;;;10.27;63.58
20027;BME280;10174;42.688;23.344;2023-04-24T04:44:05;94978.72;;;10.30;62.74
20027;BME280;10174;42.688;23.344;2023-04-24T04:46:31;94973.13;;;10.37;62.10
20027;BME280;10174;42.688;23.344;2023-04-24T04:49:00;94997.00;;;10.59;61.61
20027;BME280;10174;42.688;23.344;2023-04-24T04:51:26;94989.75;;;10.59;61.71
20027;BME280;10174;42.688;23.344;2023-04-24T04:53:52;94926.09;;;10.55;60.14
20027;BME280;10174;42.688;23.344;2023-04-24T04:56:18;94985.66;;;10.93;59.78
20027;BME280;10174;42.688;23.344;2023-04-24T04:58:43;95020.56;;;11.13;60.68
20027;BME280;10174;42.688;23.344;2023-04-24T05:01:08;95002.34;;;10.84;60.84
20027;BME280;10174;42.688;23.344;2023-04-24T05:03:34;94972.31;;;10.57;61.97
20027;BME280;10174;42.688;23.344;2023-04-24T05:05:59;95002.38;;;10.69;62.00
20027;BME280;10174;42.688;23.344;2023-04-24T05:08:25;94984.66;;;10.58;61.99
20027;BME280;10174;42.688;23.344;2023-04-24T05:10:50;94986.28;;;10.54;61.23
20027;BME280;10174;42.688;23.344;2023-04-24T05:13:16;95016.84;;;10.73;60.95
20027;BME280;10174;42.688;23.344;2023-04-24T05:15:41;95019.03;;;10.66;62.66
20027;BME280;10174;42.688;23.344;2023-04-24T05:18:06;94971.19;;;10.32;61.74
20027;BME280;10174;42.688;23.344;2023-04-24T05:20:32;95020.63;;;10.67;62.33
20027;BME280;10174;42.688;23.344;2023-04-24T05:22:57;94872.22;;;9.79;62.25
20027;BME280;10174;42.688;23.344;2023-04-24T05:25:23;94970.69;;;10.56;61.96
20027;BME280;10174;42.688;23.344;2023-04-24T05:27:48;95007.19;;;10.77;63.45
20027;BME280;10174;42.688;23.344;2023-04-24T05:30:13;95016.84;;;10.83;63.54
20027;BME280;10174;42.688;23.344;2023-04-24T05:32:39;94891.50;;;9.96;63.55
20027;BME280;10174;42.688;23.344;2023-04-24T05:35:04;94989.75;;;10.64;62.92
20027;BME280;10174;42.688;23.344;2023-04-24T05:37:30;94909.50;;;10.11;62.96
20027;BME280;10174;42.688;23.344;2023-04-24T05:39:56;95005.00;;;10.95;62.47
20027;BME280;10174;42.688;23.344;2023-04-24T05:42:21;94855.25;;;10.35;61.32
20027;BME280;10174;42.688;23.344;2023-04-24T05:44:46;94988.25;;;11.29;61.52
20027;BME280;10174;42.688;23.344;2023-04-24T05:47:12;95026.81;;;11.58;60.07
20027;BME280;10174;42.688;23.344;2023-04-24T05:49:37;94917.22;;;11.30;59.18
20027;BME280;10174;42.688;23.344;2023-04-24T05:52:03;95008.47;;;11.76;59.42
20027;BME280;10174;42.688;23.344;2023-04-24T05:54:30;94999.84;;;11.74;58.86
20027;BME280;10174;42.688;23.344;2023-04-24T05:56:56;94894.63;;;11.31;58.38
20027;BME280;10174;42.688;23.344;2023-04-24T05:59:21;94983.41;;;11.81;58.66
20027;BME280;10174;42.688;23.344;2023-04-24T06:01:46;95020.34;;;11.65;59.89
20027;BME280;10174;42.688;23.344;2023-04-24T06:04:12;95022.88;;;11.40;60.33
20027;BME280;10174;42.688;23.344;2023-04-24T06:06:39;94992.00;;;11.28;60.23
20027;BME280;10174;42.688;23.344;2023-04-24T06:09:04;95007.25;;;11.48;59.79
20027;BME280;10174;42.688;23.344;2023-04-24T06:11:30;95024.09;;;11.69;59.88
20027;BME280;10174;42.688;23.344;2023-04-24T06:13:55;94976.09;;;11.36;60.26
20027;BME280;10174;42.688;23.344;2023-04-24T06:16:21;95004.22;;;11.59;59.79
20027;BME280;10174;42.688;23.344;2023-04-24T06:18:46;94998.25;;;11.73;60.00
20027;BME280;10174;42.688;23.344;2023-04-24T06:21:12;94905.16;;;11.27;59.70
20027;BME280;10174;42.688;23.344;2023-04-24T06:23:38;94962.81;;;11.55;59.83
20027;BME280;10174;42.688;23.344;2023-04-24T06:26:04;95016.81;;;11.74;59.97
20027;BME280;10174;42.688;23.344;2023-04-24T06:28:29;94897.84;;;11.33;59.57
20027;BME280;10174;42.688;23.344;2023-04-24T06:30:55;94994.72;;;12.22;58.70
20027;BME280;10174;42.688;23.344;2023-04-24T06:33:21;95025.69;;;12.59;58.15
20027;BME280;10174;42.688;23.344;2023-04-24T06:35:46;95014.72;;;12.80;56.84
20027;BME280;10174;42.688;23.344;2023-04-24T06:38:11;94951.88;;;12.85;56.22
20027;BME280;10174;42.688;23.344;2023-04-24T06:40:37;94994.69;;;13.15;55.88
20027;BME280;10174;42.688;23.344;2023-04-24T06:43:02;95017.00;;;12.97;56.61
20027;BME280;10174;42.688;23.344;2023-04-24T06:45:29;94981.13;;;12.72;57.20
20027;BME280;10174;42.688;23.344;2023-04-24T06:47:55;95024.25;;;13.26;56.34
20027;BME280;10174;42.688;23.344;2023-04-24T06:50:20;95022.84;;;13.28;56.10
20027;BME280;10174;42.688;23.344;2023-04-24T06:52:46;95012.81;;;13.10;56.38
20027;BME280;10174;42.688;23.344;2023-04-24T06:55:12;95004.88;;;12.94;56.96
20027;BME280;10174;42.688;23.344;2023-04-24T06:57:37;94890.19;;;12.78;55.99
20027;BME280;10174;42.688;23.344;2023-04-24T07:00:04;95006.34;;;13.78;54.52
20027;BME280;10174;42.688;23.344;2023-04-24T07:02:31;95017.75;;;13.75;54.89
20027;BME280;10174;42.688;23.344;2023-04-24T07:04:57;94966.56;;;12.97;56.08
20027;BME280;10174;42.688;23.344;2023-04-24T07:07:22;94901.88;;;12.44;56.35
20027;BME280;10174;42.688;23.344;2023-04-24T07:09:49;95008.84;;;13.26;55.97
20027;BME280;10174;42.688;23.344;2023-04-24T07:12:16;95009.34;;;13.77;55.48
20027;BME280;10174;42.688;23.344;2023-04-24T07:14:42;95008.09;;;14.26;53.53
20027;BME280;10174;42.688;23.344;2023-04-24T07:17:07;95001.28;;;15.13;51.37
20027;BME280;10174;42.688;23.344;2023-04-24T07:19:33;94965.63;;;16.26;47.99
20027;BME280;10174;42.688;23.344;2023-04-24T07:22:00;94920.94;;;15.78;48.35
20027;BME280;10174;42.688;23.344;2023-04-24T07:24:26;95002.06;;;15.56;49.63
20027;BME280;10174;42.688;23.344;2023-04-24T07:26:54;95000.09;;;15.34;50.54
20027;BME280;10174;42.688;23.344;2023-04-24T07:29:20;94987.88;;;15.36;51.14
20027;BME280;10174;42.688;23.344;2023-04-24T07:31:46;94991.75;;;15.30;51.31
20027;BME280;10174;42.688;23.344;2023-04-24T07:34:12;94926.03;;;15.16;50.98
20027;BME280;10174;42.688;23.344;2023-04-24T07:36:37;94950.94;;;15.82;49.79
20027;BME280;10174;42.688;23.344;2023-04-24T07:39:06;94886.84;;;15.13;50.29
20027;BME280;10174;42.688;23.344;2023-04-24T07:41:31;94953.25;;;15.61;50.79
20027;BME280;10174;42.688;23.344;2023-04-24T07:43:58;94950.91;;;15.96;49.61
20027;BME280;10174;42.688;23.344;2023-04-24T07:46:23;94885.56;;;15.61;48.44
20027;BME280;10174;42.688;23.344;2023-04-24T07:48:50;94965.75;;;16.21;49.08
20027;BME280;10174;42.688;23.344;2023-04-24T07:51:15;94964.41;;;17.09;47.40
20027;BME280;10174;42.688;23.344;2023-04-24T07:53:42;94958.63;;;17.02;46.44
20027;BME280;10174;42.688;23.344;2023-04-24T07:56:08;94956.50;;;17.39;45.97
20027;BME280;10174;42.688;23.344;2023-04-24T07:58:34;94957.50;;;17.43;46.00
20027;BME280;10174;42.688;23.344;2023-04-24T08:00:59;94969.25;;;17.30;45.78
20027;BME280;10174;42.688;23.344;2023-04-24T08:03:24;94964.22;;;17.45;45.97
20027;BME280;10174;42.688;23.344;2023-04-24T08:05:50;94975.63;;;17.74;45.76
20027;BME280;10174;42.688;23.344;2023-04-24T08:08:16;94915.41;;;17.89;44.07
20027;BME280;10174;42.688;23.344;2023-04-24T08:10:41;94858.66;;;18.23;43.15
20027;BME280;10174;42.688;23.344;2023-04-24T08:13:07;94944.97;;;19.26;42.12
20027;BME280;10174;42.688;23.344;2023-04-24T08:15:33;94943.03;;;19.86;40.41
20027;BME280;10174;42.688;23.344;2023-04-24T08:17:58;94954.00;;;19.98;40.07
20027;BME280;10174;42.688;23.344;2023-04-24T08:20:23;94856.47;;;20.04;38.59
20027;BME280;10174;42.688;23.344;2023-04-24T08:22:49;94931.66;;;20.80;38.65
20027;BME280;10174;42.688;23.344;2023-04-24T08:25:15;94858.88;;;20.05;38.73
20027;BME280;10174;42.688;23.344;2023-04-24T08:27:40;94931.00;;;20.62;38.18
20027;BME280;10174;42.688;23.344;2023-04-24T08:30:06;94915.81;;;21.20;36.99
20027;BME280;10174;42.688;23.344;2023-04-24T08:32:32;94946.91;;;23.30;34.80
20027;BME280;10174;42.688;23.344;2023-04-24T08:34:58;94942.63;;;23.17;34.15
20027;BME280;10174;42.688;23.344;2023-04-24T08:37:25;94749.63;;;22.03;33.64
20027;BME280;10174;42.688;23.344;2023-04-24T08:39:50;94891.00;;;23.51;32.80
20027;BME280;10174;42.688;23.344;2023-04-24T08:42:19;94932.50;;;23.85;32.72
20027;BME280;10174;42.688;23.344;2023-04-24T08:44:46;94839.16;;;24.17;31.79
20027;BME280;10174;42.688;23.344;2023-04-24T08:47:14;94911.78;;;24.43;31.73
20027;BME280;10174;42.688;23.344;2023-04-24T08:49:40;94874.25;;;24.66;31.32
20027;BME280;10174;42.688;23.344;2023-04-24T08:52:05;94908.34;;;24.65;31.22
20027;BME280;10174;42.688;23.344;2023-04-24T08:54:33;94918.31;;;24.34;32.19
20027;BME280;10174;42.688;23.344;2023-04-24T08:57:00;94878.44;;;24.41;31.57
20027;BME280;10174;42.688;23.344;2023-04-24T08:59:31;94913.78;;;24.62;31.57
20027;BME280;10174;42.688;23.344;2023-04-24T09:01:57;94910.50;;;24.36;31.33
20027;BME280;10174;42.688;23.344;2023-04-24T09:04:24;94891.56;;;24.51;31.24
20027;BME280;10174;42.688;23.344;2023-04-24T09:06:59;94868.56;;;24.79;31.00
20027;BME280;10174;42.688;23.344;2023-04-24T09:09:25;94881.13;;;24.80;30.76
20027;BME280;10174;42.688;23.344;2023-04-24T09:11:52;94897.41;;;24.69;31.13
20027;BME280;10174;42.688;23.344;2023-04-24T09:14:20;94886.69;;;25.80;29.34
20027;BME280;10174;42.688;23.344;2023-04-24T09:16:46;94879.19;;;25.76;29.31
20027;BME280;10174;42.688;23.344;2023-04-24T09:19:11;94883.50;;;28.10;26.58
20027;BME280;10174;42.688;23.344;2023-04-24T09:21:37;94858.25;;;26.29;27.83
20027;BME280;10174;42.688;23.344;2023-04-24T09:24:14;94886.22;;;23.83;31.59
20027;BME280;10174;42.688;23.344;2023-04-24T09:26:39;94874.47;;;23.32;32.51
20027;BME280;10174;42.688;23.344;2023-04-24T09:29:05;94815.84;;;23.52;31.99
20027;BME280;10174;42.688;23.344;2023-04-24T09:31:31;94782.06;;;24.03;31.45
20027;BME280;10174;42.688;23.344;2023-04-24T09:33:57;94856.34;;;25.46;30.33
20027;BME280;10174;42.688;23.344;2023-04-24T09:36:31;94863.84;;;26.36;29.09
20027;BME280;10174;42.688;23.344;2023-04-24T09:39:03;94772.59;;;26.75;28.06
20027;BME280;10174;42.688;23.344;2023-04-24T09:41:32;94830.59;;;26.90;27.91
20027;BME280;10174;42.688;23.344;2023-04-24T09:44:11;94838.91;;;27.38;27.51
20027;BME280;10174;42.688;23.344;2023-04-24T09:46:37;94849.97;;;26.63;27.82
20027;BME280;10174;42.688;23.344;2023-04-24T09:49:13;94838.38;;;26.80;27.31
20027;BME280;10174;42.688;23.344;2023-04-24T09:51:40;94809.38;;;26.53;27.90
20027;BME280;10174;42.688;23.344;2023-04-24T09:54:19;94849.97;;;27.00;27.42
20027;BME280;10174;42.688;23.344;2023-04-24T09:56:48;94844.72;;;26.84;27.74
20027;BME280;10174;42.688;23.344;2023-04-24T09:59:15;94820.84;;;27.51;25.70
20027;BME280;10174;42.688;23.344;2023-04-24T10:01:41;94836.72;;;27.69;26.30
20027;BME280;10174;42.688;23.344;2023-04-24T10:04:18;94820.50;;;27.08;26.84
20027;BME280;10174;42.688;23.344;2023-04-24T10:06:45;94834.59;;;28.11;26.14
20027;BME280;10174;42.688;23.344;2023-04-24T10:09:10;94828.50;;;28.93;24.64
20027;BME280;10174;42.688;23.344;2023-04-24T10:11:41;94773.53;;;28.34;25.00
20027;BME280;10174;42.688;23.344;2023-04-24T10:14:09;94745.44;;;28.06;25.60
20027;BME280;10174;42.688;23.344;2023-04-24T10:16:36;94795.72;;;27.67;26.83
20027;BME280;10174;42.688;23.344;2023-04-24T10:19:02;94806.31;;;28.53;25.06
20027;BME280;10174;42.688;23.344;2023-04-24T10:21:28;94762.50;;;29.71;23.92
20027;BME280;10174;42.688;23.344;2023-04-24T10:23:54;94796.16;;;29.01;24.70
20027;BME280;10174;42.688;23.344;2023-04-24T10:26:21;94785.78;;;28.40;25.22
20027;BME280;10174;42.688;23.344;2023-04-24T10:28:48;94766.34;;;29.98;23.80
20027;BME280;10174;42.688;23.344;2023-04-24T10:31:14;94795.19;;;30.12;24.06
20027;BME280;10174;42.688;23.344;2023-04-24T10:33:42;94775.06;;;28.20;25.16
20027;BME280;10174;42.688;23.344;2023-04-24T10:36:09;94770.00;;;28.44;25.77
20027;BME280;10174;42.688;23.344;2023-04-24T10:38:37;94762.16;;;29.14;25.03
20027;BME280;10174;42.688;23.344;2023-04-24T10:41:12;94786.19;;;30.67;22.88
20027;BME280;10174;42.688;23.344;2023-04-24T10:43:44;94779.84;;;26.16;27.64
20027;BME280;10174;42.688;23.344;2023-04-24T10:46:10;94749.34;;;23.94;30.54
20027;BME280;10174;42.688;23.344;2023-04-24T10:48:36;94757.25;;;23.96;30.51
20027;BME280;10174;42.688;23.344;2023-04-24T10:51:11;94749.97;;;24.27;31.50
20027;BME280;10174;42.688;23.344;2023-04-24T10:53:38;94715.53;;;24.76;29.87
20027;BME280;10174;42.688;23.344;2023-04-24T10:56:08;94768.53;;;25.56;28.43
20027;BME280;10174;42.688;23.344;2023-04-24T10:58:42;94649.06;;;26.29;27.30
20027;BME280;10174;42.688;23.344;2023-04-24T11:01:31;94689.03;;;26.16;28.07
20027;BME280;10174;42.688;23.344;2023-04-24T11:03:59;94758.44;;;25.68;28.79
20027;BME280;10174;42.688;23.344;2023-04-24T11:06:43;94711.97;;;24.06;29.30
20027;BME280;10174;42.688;23.344;2023-04-24T11:09:10;94747.22;;;24.04;30.70
20027;BME280;10174;42.688;23.344;2023-04-24T11:11:38;94739.63;;;22.71;31.88
20027;BME280;10174;42.688;23.344;2023-04-24T11:14:10;94742.09;;;21.84;34.70
20027;BME280;10174;42.688;23.344;2023-04-24T11:16:51;94754.16;;;21.42;35.34
20027;BME280;10174;42.688;23.344;2023-04-24T11:21:48;94744.25;;;20.72;37.60
20027;BME280;10174;42.688;23.344;2023-04-24T11:32:28;94789.38;;;16.80;62.32
20027;BME280;10174;42.688;23.344;2023-04-24T11:34:59;94807.03;;;16.29;64.52
20027;BME280;10174;42.688;23.344;2023-04-24T11:37:37;94775.94;;;16.75;62.93
20027;BME280;10174;42.688;23.344;2023-04-24T11:40:04;94769.13;;;18.56;60.32
20027;BME280;10174;42.688;23.344;2023-04-24T11:42:36;94768.78;;;19.26;68.01
20027;BME280;10174;42.688;23.344;2023-04-24T11:45:07;94700.66;;;18.84;64.15
20027;BME280;10174;42.688;23.344;2023-04-24T11:47:33;94607.59;;;17.97;55.75
20027;BME280;10174;42.688;23.344;2023-04-24T11:49:59;94742.53;;;19.21;53.93
20027;BME280;10174;42.688;23.344;2023-04-24T11:52:26;94716.03;;;19.10;55.81
20027;BME280;10174;42.688;23.344;2023-04-24T11:54:51;94699.91;;;19.59;49.92
20027;BME280;10174;42.688;23.344;2023-04-24T11:57:19;94759.00;;;20.46;49.89
20027;BME280;10174;42.688;23.344;2023-04-24T11:59:45;94708.78;;;20.60;47.32
20027;BME280;10174;42.688;23.344;2023-04-24T12:02:25;94754.78;;;21.11;42.43
20027;BME280;10174;42.688;23.344;2023-04-24T12:04:52;94751.41;;;21.55;39.13
20027;BME280;10174;42.688;23.344;2023-04-24T12:07:18;94534.50;;;19.93;44.46
20027;BME280;10174;42.688;23.344;2023-04-24T12:09:49;94748.47;;;22.04;37.96
20027;BME280;10174;42.688;23.344;2023-04-24T12:12:16;94737.66;;;21.79;38.45
20027;BME280;10174;42.688;23.344;2023-04-24T12:14:50;94735.06;;;21.70;39.42
20027;BME280;10174;42.688;23.344;2023-04-24T12:17:17;94740.91;;;21.69;44.13
20027;BME280;10174;42.688;23.344;2023-04-24T12:19:47;94715.28;;;21.21;42.31
20027;BME280;10174;42.688;23.344;2023-04-24T12:22:13;94725.16;;;21.25;42.36
20027;BME280;10174;42.688;23.344;2023-04-24T12:25:03;94717.94;;;21.45;39.47
20027;BME280;10174;42.688;23.344;2023-04-24T12:27:33;94742.59;;;21.74;37.56
20027;BME280;10174;42.688;23.344;2023-04-24T12:30:00;94723.25;;;21.26;39.17
20027;BME280;10174;42.688;23.344;2023-04-24T12:32:26;94707.19;;;21.65;37.93
20027;BME280;10174;42.688;23.344;2023-04-24T12:34:55;94715.81;;;21.39;38.43
20027;BME280;10174;42.688;23.344;2023-04-24T12:37:23;94697.56;;;21.14;40.48
20027;BME280;10174;42.688;23.344;2023-04-24T12:42:29;94703.63;;;21.77;39.06
20027;BME280;10174;42.688;23.344;2023-04-24T12:44:59;94671.66;;;22.09;38.33
20027;BME280;10174;42.688;23.344;2023-04-24T12:47:25;94632.09;;;21.59;37.78
20027;BME280;10174;42.688;23.344;2023-04-24T12:49:50;94604.91;;;21.50;37.02
20027;BME280;10174;42.688;23.344;2023-04-24T12:52:18;94610.88;;;21.40;38.51
20027;BME280;10174;42.688;23.344;2023-04-24T12:54:45;94665.63;;;21.87;36.54
20027;BME280;10174;42.688;23.344;2023-04-24T12:57:11;94643.28;;;21.69;37.03
20027;BME280;10174;42.688;23.344;2023-04-24T12:59:36;94656.03;;;21.78;38.16
20027;BME280;10174;42.688;23.344;2023-04-24T13:02:02;94638.78;;;21.61;38.52
20027;BME280;10174;42.688;23.344;2023-04-24T13:04:27;94635.78;;;21.50;39.42